Time;durP1;ratioP1;P1;durP2;ratioP2;P2;SDS_P1;SDS_P2;PMS_P1;PMS_P2;Temp;Humidity;BMP_temperature;BMP_pressure;BME280_temperature;BME280_humidity;BME280_pressure;Samples;Min_cycle;Max_cycle;Signal;HPM_P1;HPM_P2
2023/04/12 00:00:20;;;;;;;20.58;4.20;;;;;;;11.64;92.49;99902.38;5093628;28;20051;-66
2023/04/12 00:02:53;;;;;;;11.75;3.80;;;;;;;11.62;92.52;99898.31;5073056;28;20049;-65
2023/04/12 00:05:26;;;;;;;17.27;3.65;;;;;;;11.51;93.13;99897.09;5090972;28;20071;-64
2023/04/12 00:07:54;;;;;;;15.88;3.67;;;;;;;11.41;93.63;99895.59;5080334;28;20051;-66
2023/04/12 00:10:22;;;;;;;20.17;3.60;;;;;;;11.69;93.23;99884.78;5092062;28;20063;-65
2023/04/12 00:12:49;;;;;;;13.98;3.35;;;;;;;11.63;93.17;99886.94;5075938;28;20048;-66
2023/04/12 00:15:16;;;;;;;18.58;3.75;;;;;;;11.59;92.64;99874.97;5075193;28;20048;-66
2023/04/12 00:17:45;;;;;;;17.92;3.55;;;;;;;11.59;93.47;99874.16;5074355;28;20049;-64
2023/04/12 00:20:15;;;;;;;15.32;3.50;;;;;;;11.37;94.03;99871.81;5067605;28;20056;-66
2023/04/12 00:22:42;;;;;;;15.90;3.83;;;;;;;11.55;94.01;99863.00;5082196;28;20051;-65
2023/04/12 00:25:10;;;;;;;17.23;3.53;;;;;;;11.61;93.78;99860.84;5077222;28;20055;-64
2023/04/12 00:27:37;;;;;;;26.35;4.57;;;;;;;11.69;93.72;99848.94;5074487;28;20041;-64
2023/04/12 00:30:07;;;;;;;14.15;4.00;;;;;;;11.72;93.25;99851.81;5073356;28;20075;-65
2023/04/12 00:32:34;;;;;;;19.77;3.70;;;;;;;11.64;93.76;99840.84;5073714;28;20468;-64
2023/04/12 00:35:02;;;;;;;14.93;3.42;;;;;;;11.43;94.99;99827.13;5061448;28;20059;-64
2023/04/12 00:37:29;;;;;;;17.23;3.63;;;;;;;11.68;94.61;99825.28;5074264;28;20060;-64
2023/04/12 00:39:56;;;;;;;17.33;4.07;;;;;;;11.62;94.23;99818.31;5073643;28;20510;-65
2023/04/12 00:42:24;;;;;;;19.70;4.22;;;;;;;11.77;93.58;99809.41;5073524;28;20045;-66
2023/04/12 00:44:52;;;;;;;16.40;3.53;;;;;;;12.02;92.29;99805.50;5073697;28;20053;-64
2023/04/12 00:47:20;;;;;;;16.65;3.05;;;;;;;11.79;93.33;99799.63;5054908;28;20048;-64
2023/04/12 00:49:47;;;;;;;16.73;4.00;;;;;;;11.85;92.70;99790.00;5073457;28;20528;-64
2023/04/12 00:52:16;;;;;;;17.17;3.92;;;;;;;11.83;92.78;99785.97;5073081;28;20044;-64
2023/04/12 00:54:44;;;;;;;17.98;3.95;;;;;;;11.65;93.23;99777.09;5056887;28;20404;-63
2023/04/12 00:57:12;;;;;;;20.67;3.53;;;;;;;11.62;93.87;99775.00;5073665;28;20075;-64
2023/04/12 00:59:39;;;;;;;20.95;3.92;;;;;;;11.65;93.49;99781.78;5074545;28;20052;-64
2023/04/12 01:02:07;;;;;;;17.08;4.13;;;;;;;11.89;92.83;99773.56;5055080;28;20075;-66
2023/04/12 01:04:36;;;;;;;16.58;3.20;;;;;;;11.77;93.11;99768.03;5078043;28;20051;-66
2023/04/12 01:07:06;;;;;;;15.57;3.75;;;;;;;11.86;92.53;99736.41;5072915;28;20045;-66
2023/04/12 01:09:40;;;;;;;17.65;3.55;;;;;;;11.91;92.66;99727.09;5056619;28;20436;-65
2023/04/12 01:12:36;;;;;;;18.02;3.72;;;;;;;11.90;92.54;99723.53;5071865;28;20079;-64
2023/04/12 01:15:11;;;;;;;17.38;3.22;;;;;;;11.89;92.70;99723.88;5052510;28;20064;-65
2023/04/12 01:17:56;;;;;;;19.60;3.25;;;;;;;11.75;93.04;99717.91;5070849;28;20507;-66
2023/04/12 01:20:29;;;;;;;17.55;3.53;;;;;;;12.08;93.03;99716.59;5037918;28;20052;-65
2023/04/12 01:23:34;;;;;;;18.05;4.40;;;;;;;11.98;92.30;99714.31;5071901;28;20095;-64
2023/04/12 01:26:11;;;;;;;18.52;3.97;;;;;;;12.04;91.90;99714.91;5084363;28;20052;-65
2023/04/12 01:28:41;;;;;;;20.05;3.78;;;;;;;11.91;92.51;99708.56;5052926;28;20053;-64
2023/04/12 01:31:11;;;;;;;15.07;3.22;;;;;;;12.00;92.72;99702.94;5061425;28;20041;-65
2023/04/12 01:33:39;;;;;;;17.02;3.35;;;;;;;11.93;92.08;99688.91;5056025;28;20131;-65
2023/04/12 01:36:19;;;;;;;12.65;3.17;;;;;;;12.08;92.68;99685.47;5071187;28;20049;-66
2023/04/12 01:38:47;;;;;;;15.30;3.03;;;;;;;12.01;92.84;99676.97;5057398;28;20064;-66
2023/04/12 01:41:15;;;;;;;16.00;3.75;;;;;;;12.10;92.71;99678.41;5060538;28;20041;-66
2023/04/12 01:43:45;;;;;;;15.23;3.33;;;;;;;11.77;93.68;99672.25;5062122;28;20052;-65
2023/04/12 01:46:15;;;;;;;17.67;3.45;;;;;;;11.73;94.93;99659.53;5081864;28;20060;-65
2023/04/12 01:48:50;;;;;;;19.80;4.28;;;;;;;11.94;93.88;99665.69;5068237;28;20063;-65
2023/04/12 01:51:44;;;;;;;12.95;3.65;;;;;;;12.16;93.12;99645.84;5061561;28;20506;-65
2023/04/12 01:54:21;;;;;;;12.77;3.17;;;;;;;12.09;92.53;99651.97;5081097;28;20052;-64
2023/04/12 01:56:53;;;;;;;11.88;3.53;;;;;;;12.15;92.50;99645.03;5073921;28;20048;-65
2023/04/12 01:59:23;;;;;;;16.42;3.17;;;;;;;12.16;92.04;99643.91;5091947;28;20048;-66
2023/04/12 02:01:50;;;;;;;13.82;3.47;;;;;;;12.09;91.79;99635.41;5077009;28;20048;-68
2023/04/12 02:04:18;;;;;;;17.27;3.00;;;;;;;11.93;93.04;99634.53;5061402;28;20047;-65
2023/04/12 02:06:46;;;;;;;12.90;3.60;;;;;;;12.08;92.69;99633.78;5078261;28;20668;-66
2023/04/12 02:09:14;;;;;;;13.77;3.10;;;;;;;12.15;93.21;99628.47;5073219;28;20048;-65
2023/04/12 02:11:46;;;;;;;14.82;3.05;;;;;;;12.09;92.53;99626.31;5071892;28;20055;-67
2023/04/12 02:14:14;;;;;;;15.52;3.45;;;;;;;12.25;93.13;99616.97;5076497;28;20059;-65
2023/04/12 02:16:44;;;;;;;;;;;;;;;12.21;92.79;99609.72;5079832;28;20144;-66
2023/04/12 02:19:11;;;;;;;16.27;3.03;;;;;;;12.24;92.88;99593.25;5071649;28;19932;-64
2023/04/12 02:21:42;;;;;;;14.05;3.30;;;;;;;12.13;94.23;99602.41;5070475;28;20059;-65
2023/04/12 02:24:10;;;;;;;9.93;2.35;;;;;;;12.30;94.11;99593.81;5077415;28;20044;-64
2023/04/12 02:26:38;;;;;;;12.70;3.03;;;;;;;12.43;93.66;99589.81;5049796;28;20063;-66
2023/04/12 02:29:09;;;;;;;12.07;2.70;;;;;;;12.34;93.37;99589.19;5075545;28;20052;-65
2023/04/12 02:31:37;;;;;;;12.35;2.30;;;;;;;12.40;93.46;99579.50;5076512;28;20527;-65
2023/04/12 02:34:08;;;;;;;10.93;3.38;;;;;;;12.24;93.91;99565.66;5073269;28;20055;-65
2023/04/12 02:36:38;;;;;;;;;;;;;;;12.17;94.40;99564.63;5071689;28;20574;-65
2023/04/12 02:39:06;;;;;;;12.38;2.75;;;;;;;12.16;94.74;99558.34;5072898;28;19927;-64
2023/04/12 02:41:35;;;;;;;12.50;2.85;;;;;;;12.15;95.53;99548.44;5054360;28;20040;-66
2023/04/12 02:44:05;;;;;;;11.70;2.92;;;;;;;12.26;95.00;99559.78;5071878;28;20384;-65
2023/04/12 02:46:33;;;;;;;8.85;2.20;;;;;;;12.41;94.36;99543.22;5077628;28;20150;-65
2023/04/12 02:49:01;;;;;;;9.85;2.17;;;;;;;12.46;93.48;99536.66;5074300;28;20357;-64
2023/04/12 02:51:37;;;;;;;9.10;2.30;;;;;;;12.33;94.08;99535.94;5076388;28;20064;-64
2023/04/12 02:54:04;;;;;;;9.40;2.53;;;;;;;12.41;94.46;99539.69;5073332;28;20562;-64
2023/04/12 02:56:46;;;;;;;13.75;2.50;;;;;;;12.44;94.27;99530.69;5076751;28;20056;-66
2023/04/12 02:59:52;;;;;;;11.93;2.30;;;;;;;12.32;95.00;99517.75;5072749;28;20059;-65
2023/04/12 03:02:26;;;;;;;10.57;2.28;;;;;;;12.47;94.97;99527.22;5053783;28;20499;-64
2023/04/12 03:04:59;;;;;;;9.52;2.85;;;;;;;12.47;94.55;99527.22;5088619;28;20044;-67
2023/04/12 03:07:35;;;;;;;12.05;3.00;;;;;;;12.48;94.85;99526.06;5038449;28;20048;-67
2023/04/12 03:10:06;;;;;;;13.27;2.60;;;;;;;12.75;93.46;99503.06;5071297;28;20059;-65
2023/04/12 03:12:37;;;;;;;11.80;2.42;;;;;;;12.72;93.26;99505.75;5071633;28;20056;-64
2023/04/12 03:15:16;;;;;;;11.77;2.85;;;;;;;12.55;93.74;99497.81;5057522;28;20044;-64
2023/04/12 03:17:47;;;;;;;12.55;2.75;;;;;;;12.73;93.59;99494.34;5070535;28;20052;-66
2023/04/12 03:20:19;;;;;;;6.75;2.25;;;;;;;12.72;94.13;99492.75;5052072;28;20053;-65
2023/04/12 03:23:03;;;;;;;8.98;2.47;;;;;;;12.60;94.39;99494.78;5072746;28;20048;-66
2023/04/12 03:25:35;;;;;;;8.63;2.28;;;;;;;12.52;94.75;99515.13;5083182;28;20060;-66
2023/04/12 03:28:22;;;;;;;13.10;2.20;;;;;;;12.56;95.36;99527.03;5058502;28;20044;-65
2023/04/12 03:30:51;;;;;;;9.40;1.90;;;;;;;12.55;94.90;99537.31;5047686;28;20794;-65
2023/04/12 03:33:22;;;;;;;11.10;2.17;;;;;;;12.45;95.79;99546.91;5071226;28;20055;-65
2023/04/12 03:35:54;;;;;;;8.93;2.10;;;;;;;12.19;98.22;99556.81;5070664;28;20056;-66
2023/04/12 03:38:22;;;;;;;7.35;2.28;;;;;;;12.06;98.80;99561.59;5089624;28;20060;-65
2023/04/12 03:40:49;;;;;;;4.88;0.98;;;;;;;11.56;97.05;99549.44;5073937;28;20058;-64
2023/04/12 03:43:23;;;;;;;1.95;0.55;;;;;;;11.49;96.80;99543.69;5089443;28;20044;-64
2023/04/12 03:45:50;;;;;;;0.90;0.43;;;;;;;11.30;96.87;99545.09;5074940;28;20079;-64
2023/04/12 03:48:18;;;;;;;5.53;0.80;;;;;;;11.35;97.22;99538.53;5057472;28;20052;-66
2023/04/12 03:50:47;;;;;;;3.38;0.85;;;;;;;11.61;97.56;99535.38;5074120;28;20067;-65
2023/04/12 03:53:20;;;;;;;2.75;0.65;;;;;;;11.64;96.51;99520.91;5074710;28;20049;-66
2023/04/12 03:55:47;;;;;;;3.25;0.55;;;;;;;11.67;95.39;99529.31;5073590;28;20053;-65
2023/04/12 03:58:17;;;;;;;1.77;0.63;;;;;;;11.53;94.73;99528.84;5081879;28;20368;-65
2023/04/12 04:00:46;;;;;;;2.67;0.52;;;;;;;11.38;95.72;99526.00;5056833;28;20056;-65
2023/04/12 04:03:14;;;;;;;2.22;0.80;;;;;;;11.23;97.33;99531.09;5078010;28;20047;-65
2023/04/12 04:06:02;;;;;;;2.17;0.50;;;;;;;11.18;96.78;99531.31;5072371;28;20097;-66
2023/04/12 04:08:31;;;;;;;1.92;0.68;;;;;;;11.34;97.30;99531.41;5074643;28;20056;-64
2023/04/12 04:10:59;;;;;;;1.92;0.50;;;;;;;11.35;96.39;99525.56;5072834;28;20056;-64
2023/04/12 04:13:32;;;;;;;1.02;0.35;;;;;;;11.39;96.40;99525.66;5059086;28;20059;-65
2023/04/12 04:16:05;;;;;;;1.17;0.38;;;;;;;11.44;96.15;99519.13;5056682;28;20603;-65
2023/04/12 04:18:34;;;;;;;2.67;0.50;;;;;;;11.63;95.14;99514.56;5085876;28;20055;-65
2023/04/12 04:21:03;;;;;;;1.10;0.40;;;;;;;11.46;95.26;99512.09;5054444;28;20452;-65
2023/04/12 04:23:39;;;;;;;1.85;0.57;;;;;;;11.28;96.06;99510.75;5053837;28;20060;-65
2023/04/12 04:26:10;;;;;;;3.65;1.08;;;;;;;11.40;96.91;99518.19;5040578;28;20053;-64
2023/04/12 04:28:46;;;;;;;0.73;0.35;;;;;;;11.44;95.88;99517.16;5077713;28;20040;-65
2023/04/12 04:31:17;;;;;;;4.65;0.60;;;;;;;11.55;95.62;99518.28;5084227;28;20048;-67
2023/04/12 04:33:49;;;;;;;1.30;0.40;;;;;;;11.53;95.37;99514.25;5083623;28;20067;-66
2023/04/12 04:36:20;;;;;;;2.72;0.60;;;;;;;11.47;95.63;99515.66;5072516;28;20495;-65
2023/04/12 04:38:52;;;;;;;1.58;0.47;;;;;;;11.47;95.56;99510.97;5075988;28;20067;-65
2023/04/12 04:41:38;;;;;;;1.00;0.43;;;;;;;11.48;95.73;99509.78;5071914;28;20496;-64
2023/04/12 04:44:10;;;;;;;1.58;0.63;;;;;;;11.42;96.12;99513.16;5053425;28;20683;-65
2023/04/12 04:46:43;;;;;;;2.13;0.68;;;;;;;11.38;96.22;99509.47;5072179;28;20060;-65
2023/04/12 04:49:11;;;;;;;3.85;0.85;;;;;;;11.40;95.17;99510.75;5073619;28;20411;-65
2023/04/12 04:51:39;;;;;;;0.88;0.63;;;;;;;11.49;95.23;99505.09;5073402;28;20059;-65
2023/04/12 04:54:08;;;;;;;1.37;0.40;;;;;;;11.37;95.40;99508.66;5055007;28;20049;-66
2023/04/12 04:56:39;;;;;;;1.75;0.50;;;;;;;11.22;96.13;99506.63;5072095;28;20298;-66
2023/04/12 04:59:08;;;;;;;4.60;0.80;;;;;;;11.47;95.83;99516.47;5074656;28;20048;-66
2023/04/12 05:01:36;;;;;;;1.63;0.45;;;;;;;11.43;95.65;99499.00;5072531;28;20406;-66
2023/04/12 05:04:03;;;;;;;1.35;0.52;;;;;;;11.45;95.29;99493.16;5092298;28;20051;-65
2023/04/12 05:06:31;;;;;;;1.50;0.70;;;;;;;11.52;95.52;99494.16;5063392;28;20044;-66
2023/04/12 05:09:00;;;;;;;1.02;0.60;;;;;;;11.84;95.07;99495.91;5073318;28;20439;-65
2023/04/12 05:11:31;;;;;;;1.02;0.50;;;;;;;11.76;94.90;99507.91;5055009;28;20059;-67
2023/04/12 05:14:13;;;;;;;1.90;0.60;;;;;;;11.89;94.89;99508.66;5073264;28;20056;-65
2023/04/12 05:16:40;;;;;;;1.67;0.60;;;;;;;11.66;94.59;99507.59;5077162;28;20071;-66
2023/04/12 05:19:08;;;;;;;3.03;0.60;;;;;;;11.42;95.78;99502.91;5072776;28;20055;-66
2023/04/12 05:21:35;;;;;;;2.90;0.70;;;;;;;11.20;96.38;99500.66;5071416;28;20052;-66
2023/04/12 05:24:02;;;;;;;1.60;0.73;;;;;;;11.15;97.81;99514.69;5081531;28;20048;-66
2023/04/12 05:26:33;;;;;;;2.60;0.77;;;;;;;11.21;98.44;99518.78;5072539;28;20395;-66
2023/04/12 05:29:03;;;;;;;1.55;0.68;;;;;;;11.15;98.37;99528.47;5074277;28;20079;-66
2023/04/12 05:31:31;;;;;;;1.98;0.85;;;;;;;11.45;97.37;99540.81;5072435;28;20051;-66
2023/04/12 05:34:02;;;;;;;5.38;2.03;;;;;;;9.59;95.88;99581.13;5080802;28;20127;-68
2023/04/12 05:36:33;;;;;;;4.95;2.40;;;;;;;9.05;100.00;99578.19;5055579;28;20052;-65
2023/04/12 05:39:03;;;;;;;5.80;2.63;;;;;;;8.86;100.00;99582.47;5072368;28;20044;-67
2023/04/12 05:41:33;;;;;;;;;;;;;;;8.76;100.00;99593.84;5058496;28;20917;-67
2023/04/12 05:44:02;;;;;;;6.63;2.03;;;;;;;8.39;100.00;99589.91;5090908;28;20330;-67
2023/04/12 05:46:29;;;;;;;6.32;1.80;;;;;;;8.15;100.00;99588.78;5057688;28;20086;-67
2023/04/12 05:48:57;;;;;;;3.88;1.45;;;;;;;8.34;100.00;99595.56;5083287;28;20036;-67
2023/04/12 05:51:27;;;;;;;9.85;1.88;;;;;;;8.24;100.00;99600.59;5070226;28;20049;-65
2023/04/12 05:54:09;;;;;;;9.70;2.33;;;;;;;8.64;100.00;99611.00;5072184;28;20061;-65
2023/04/12 05:56:38;;;;;;;6.88;1.77;;;;;;;8.32;99.84;99603.31;5074347;28;20061;-66
2023/04/12 05:59:06;;;;;;;4.82;1.88;;;;;;;8.07;100.00;99615.09;5087052;28;20055;-66
2023/04/12 06:01:34;;;;;;;5.30;2.00;;;;;;;7.93;100.00;99611.72;5080703;28;20423;-65
2023/04/12 06:04:01;;;;;;;7.30;2.40;;;;;;;8.42;100.00;99619.44;5055603;28;20036;-66
2023/04/12 06:06:30;;;;;;;6.60;2.40;;;;;;;8.23;100.00;99621.69;5055624;28;20057;-65
2023/04/12 06:09:01;;;;;;;6.43;2.80;;;;;;;8.13;100.00;99624.75;5093123;28;20054;-67
2023/04/12 06:11:32;;;;;;;6.90;2.70;;;;;;;8.33;100.00;99621.41;5074952;28;20052;-65
2023/04/12 06:14:00;;;;;;;10.23;3.17;;;;;;;8.50;100.00;99613.13;5093729;28;20048;-66
2023/04/12 06:16:28;;;;;;;6.38;3.33;;;;;;;8.38;100.00;99604.75;5061764;28;20059;-66
2023/04/12 06:18:56;;;;;;;7.38;3.40;;;;;;;8.77;100.00;99595.47;5092148;28;20051;-64
2023/04/12 06:21:26;;;;;;;6.80;3.05;;;;;;;8.54;100.00;99602.31;5072938;28;20504;-65
2023/04/12 06:23:53;;;;;;;7.43;3.30;;;;;;;8.89;100.00;99606.56;5054253;28;20451;-66
2023/04/12 06:26:20;;;;;;;6.05;3.33;;;;;;;8.75;100.00;99630.66;5073533;28;20053;-65
2023/04/12 06:28:48;;;;;;;8.80;3.42;;;;;;;8.67;100.00;99635.03;5073799;28;20403;-65
2023/04/12 06:31:16;;;;;;;8.18;3.13;;;;;;;8.71;100.00;99632.44;5072006;28;20055;-65
2023/04/12 06:33:43;;;;;;;7.93;3.25;;;;;;;8.94;100.00;99622.84;5073333;28;20052;-67
2023/04/12 06:36:11;;;;;;;5.72;2.42;;;;;;;8.74;100.00;99635.34;5066772;28;20494;-65
2023/04/12 06:38:39;;;;;;;7.78;2.35;;;;;;;8.48;100.00;99623.63;5073589;28;20048;-65
2023/04/12 06:41:07;;;;;;;6.32;2.85;;;;;;;8.80;100.00;99605.78;5073888;28;20503;-66
2023/04/12 06:43:34;;;;;;;8.50;2.35;;;;;;;8.84;99.66;99604.78;5081891;28;20071;-67
2023/04/12 06:46:02;;;;;;;8.75;2.47;;;;;;;9.16;96.59;99608.03;5081788;28;20056;-66
2023/04/12 06:48:29;;;;;;;8.25;2.55;;;;;;;8.99;96.92;99614.44;5061299;28;20138;-64
2023/04/12 06:50:56;;;;;;;9.13;2.65;;;;;;;9.23;97.38;99622.06;5069047;28;20051;-66
2023/04/12 06:53:24;;;;;;;9.55;3.00;;;;;;;9.53;97.72;99626.41;5065686;28;20044;-65
2023/04/12 06:55:52;;;;;;;6.93;2.55;;;;;;;9.99;97.25;99629.00;5073820;28;20052;-67
2023/04/12 06:58:19;;;;;;;11.88;2.92;;;;;;;10.34;94.28;99630.34;5067657;28;20048;-67
2023/04/12 07:00:47;;;;;;;11.35;2.22;;;;;;;10.08;89.33;99629.72;5063502;28;20036;-67
2023/04/12 07:03:14;;;;;;;9.45;1.98;;;;;;;10.43;89.63;99631.06;5070533;28;20158;-67
2023/04/12 07:05:42;;;;;;;9.98;1.33;;;;;;;10.45;90.77;99626.03;5065374;28;20071;-65
2023/04/12 07:08:09;;;;;;;7.00;1.90;;;;;;;11.20;88.04;99628.25;5071344;28;20040;-69
2023/04/12 07:10:36;;;;;;;8.52;2.30;;;;;;;11.25;85.78;99628.03;5070966;28;20052;-65
2023/04/12 07:13:07;;;;;;;5.50;1.70;;;;;;;11.52;83.13;99617.44;5075516;28;20064;-65
2023/04/12 07:15:34;;;;;;;5.90;1.70;;;;;;;11.10;83.56;99612.19;5070393;28;20048;-65
2023/04/12 07:18:02;;;;;;;6.57;1.80;;;;;;;10.91;84.47;99620.16;5049239;28;20055;-65
2023/04/12 07:20:29;;;;;;;9.70;1.92;;;;;;;10.96;84.99;99602.63;5086544;28;20776;-66
2023/04/12 07:22:57;;;;;;;10.32;1.90;;;;;;;10.60;83.17;99600.59;5074092;28;20418;-65
2023/04/12 07:25:24;;;;;;;4.15;1.30;;;;;;;10.54;84.32;99603.91;5071787;28;20044;-63
2023/04/12 07:27:51;;;;;;;6.43;1.60;;;;;;;10.58;84.20;99594.66;5071855;28;20045;-63
2023/04/12 07:30:19;;;;;;;9.38;1.70;;;;;;;10.82;83.13;99593.88;5065025;28;20068;-61
2023/04/12 07:32:47;;;;;;;7.93;1.67;;;;;;;11.30;82.83;99591.94;5070725;28;20053;-65
2023/04/12 07:35:15;;;;;;;4.68;1.55;;;;;;;11.03;82.32;99586.34;5066037;28;20052;-65
2023/04/12 07:37:42;;;;;;;9.80;1.58;;;;;;;11.15;82.12;99572.56;5069405;28;20049;-64
2023/04/12 07:40:10;;;;;;;8.15;1.65;;;;;;;11.22;81.98;99578.28;5075809;28;20506;-66
2023/04/12 07:42:37;;;;;;;9.77;1.50;;;;;;;11.16;80.84;99585.97;5065805;28;20043;-67
2023/04/12 07:45:05;;;;;;;10.02;2.05;;;;;;;11.11;80.06;99574.38;5075046;28;20048;-67
2023/04/12 07:47:32;;;;;;;3.92;1.15;;;;;;;11.26;80.34;99570.94;5070853;28;20499;-65
2023/04/12 07:50:00;;;;;;;5.70;1.50;;;;;;;11.43;79.28;99573.47;5057904;28;20048;-64
2023/04/12 07:52:28;;;;;;;6.13;1.23;;;;;;;11.28;78.65;99572.19;5054666;28;20048;-65
2023/04/12 07:54:56;;;;;;;8.35;1.67;;;;;;;11.41;79.81;99575.75;5060951;28;20075;-64
2023/04/12 07:57:23;;;;;;;8.50;1.40;;;;;;;11.58;77.96;99580.19;5078703;28;20060;-65
2023/04/12 07:59:51;;;;;;;15.45;2.88;;;;;;;11.26;78.91;99584.72;5067876;28;20060;-66
2023/04/12 08:02:24;;;;;;;5.43;1.48;;;;;;;11.42;79.38;99585.63;5068132;28;20057;-65
2023/04/12 08:04:52;;;;;;;8.02;1.63;;;;;;;11.82;77.59;99586.50;5071068;28;20052;-67
2023/04/12 08:07:21;;;;;;;5.28;1.20;;;;;;;11.57;77.08;99589.63;5067500;28;20048;-65
2023/04/12 08:09:48;;;;;;;5.10;1.27;;;;;;;11.51;77.89;99600.09;5064226;28;20044;-74
2023/04/12 08:12:16;;;;;;;5.93;1.52;;;;;;;11.44;77.60;99608.13;5065497;28;20053;-68
2023/04/12 08:14:43;;;;;;;7.00;1.50;;;;;;;11.68;77.79;99618.38;5069614;28;20047;-67
2023/04/12 08:17:11;;;;;;;5.07;1.20;;;;;;;11.76;76.81;99625.72;5067107;28;20044;-67
2023/04/12 08:19:38;;;;;;;7.00;1.17;;;;;;;11.30;74.91;99630.53;5067282;28;20063;-67
2023/04/12 08:22:07;;;;;;;3.90;1.00;;;;;;;11.27;76.76;99635.94;5065899;28;20579;-67
2023/04/12 08:24:39;;;;;;;4.90;1.63;;;;;;;11.08;78.42;99643.97;5075402;28;20063;-66
2023/04/12 08:27:06;;;;;;;8.02;1.20;;;;;;;11.34;77.49;99650.78;5074646;28;20048;-66
2023/04/12 08:29:34;;;;;;;5.40;1.10;;;;;;;10.87;76.30;99655.06;5070862;28;20056;-66
2023/04/12 08:32:08;;;;;;;5.65;1.48;;;;;;;10.99;77.74;99657.03;5065318;28;20053;-68
2023/04/12 08:34:36;;;;;;;6.32;1.10;;;;;;;11.62;75.43;99658.34;5065970;28;20106;-67
2023/04/12 08:37:04;;;;;;;4.15;1.30;;;;;;;11.12;73.34;99656.72;5064701;28;20056;-66
2023/04/12 08:39:31;;;;;;;5.75;1.33;;;;;;;10.90;74.63;99659.09;5064334;28;20044;-66
2023/04/12 08:41:59;;;;;;;4.22;1.08;;;;;;;11.13;74.05;99663.03;5062608;28;20059;-67
2023/04/12 08:44:40;;;;;;;5.07;0.70;;;;;;;10.84;74.66;99654.94;5063517;28;20396;-66
2023/04/12 08:47:09;;;;;;;4.70;1.02;;;;;;;10.50;76.41;99658.03;5077427;28;20048;-66
2023/04/12 08:49:37;;;;;;;2.65;0.80;;;;;;;10.51;76.60;99654.16;5062579;28;20052;-67
2023/04/12 08:52:07;;;;;;;4.32;1.08;;;;;;;10.53;77.72;99652.66;5064345;28;20053;-66
2023/04/12 08:54:37;;;;;;;5.82;1.30;;;;;;;11.04;76.95;99657.63;5069179;28;20518;-68
2023/04/12 08:57:06;;;;;;;;;;;;;;;11.27;75.22;99658.81;5061259;28;20048;-66
2023/04/12 08:59:39;;;;;;;4.00;1.10;;;;;;;11.03;73.63;99669.81;5070745;28;19931;-67
2023/04/12 09:02:07;;;;;;;4.78;0.90;;;;;;;10.62;74.37;99678.16;5077034;28;20052;-67
2023/04/12 09:04:51;;;;;;;5.75;1.20;;;;;;;10.61;75.01;99670.25;5062970;28;20044;-67
2023/04/12 09:07:22;;;;;;;5.70;1.13;;;;;;;10.79;74.74;99668.94;5069014;28;20510;-66
2023/04/12 09:09:49;;;;;;;5.55;1.02;;;;;;;10.87;73.78;99679.88;5069629;28;20060;-67
2023/04/12 09:12:21;;;;;;;3.33;1.20;;;;;;;11.01;73.47;99679.56;5065329;28;20048;-67
2023/04/12 09:15:07;;;;;;;23.88;10.20;;;;;;;10.99;73.08;99676.31;5065789;28;20516;-67
2023/04/12 09:17:41;;;;;;;23.15;9.82;;;;;;;11.25;72.30;99676.81;5062331;28;20423;-67
2023/04/12 09:20:15;;;;;;;24.92;9.23;;;;;;;11.17;73.29;99670.28;5065129;28;20057;-66
2023/04/12 09:22:47;;;;;;;13.52;4.40;;;;;;;11.16;72.57;99676.13;5064835;28;20052;-66
2023/04/12 09:25:15;;;;;;;5.55;1.88;;;;;;;10.89;72.67;99679.53;5070552;28;20052;-68
2023/04/12 09:27:50;;;;;;;7.22;1.13;;;;;;;11.08;73.88;99671.53;5052239;28;20072;-65
2023/04/12 09:30:19;;;;;;;6.25;1.17;;;;;;;11.50;71.46;99677.66;5074492;28;20095;-65
2023/04/12 09:32:52;;;;;;;7.97;2.40;;;;;;;11.14;70.10;99675.69;5062715;28;20067;-64
2023/04/12 09:35:37;;;;;;;7.00;2.45;;;;;;;11.09;69.69;99684.16;5075581;28;20357;-65
2023/04/12 09:38:10;;;;;;;7.75;2.08;;;;;;;11.01;69.81;99687.81;5068448;28;20403;-65
2023/04/12 09:40:40;;;;;;;8.77;1.92;;;;;;;10.95;70.02;99695.50;5060659;28;20575;-64
2023/04/12 09:43:08;;;;;;;6.07;1.23;;;;;;;11.02;70.35;99698.50;5068853;28;20045;-66
2023/04/12 09:45:39;;;;;;;4.32;1.30;;;;;;;11.17;68.53;99697.03;5069717;28;20056;-65
2023/04/12 09:48:07;;;;;;;9.73;1.00;;;;;;;11.14;68.26;99689.47;5045568;28;20460;-65
2023/04/12 09:50:34;;;;;;;3.80;1.00;;;;;;;11.69;68.52;99680.66;5062636;28;20048;-63
2023/04/12 09:53:03;;;;;;;10.68;5.85;;;;;;;11.89;67.22;99691.56;5067735;28;20091;-64
2023/04/12 09:55:30;;;;;;;3.80;1.10;;;;;;;11.99;67.01;99693.06;5051671;28;20063;-63
2023/04/12 09:58:03;;;;;;;3.15;0.70;;;;;;;11.83;62.93;99697.66;5069141;28;20044;-65
2023/04/12 10:00:33;;;;;;;3.08;0.93;;;;;;;11.79;65.95;99696.75;5072898;28;20083;-65
2023/04/12 10:03:01;;;;;;;6.82;1.50;;;;;;;12.11;65.11;99695.78;5065805;28;20271;-64
2023/04/12 10:05:28;;;;;;;6.97;1.33;;;;;;;12.33;66.49;99689.75;5054520;28;20052;-66
2023/04/12 10:07:59;;;;;;;5.00;0.90;;;;;;;12.09;64.38;99690.63;5046949;28;20522;-64
2023/04/12 10:10:29;;;;;;;4.25;1.35;;;;;;;12.06;64.33;99691.31;5050043;28;20060;-64
2023/04/12 10:12:57;;;;;;;3.33;0.85;;;;;;;12.09;64.03;99693.38;5072856;28;20063;-64
2023/04/12 10:15:25;;;;;;;2.88;1.20;;;;;;;11.82;64.42;99685.81;5081592;28;20045;-67
2023/04/12 10:17:58;;;;;;;3.58;1.20;;;;;;;12.25;64.14;99693.47;5069832;28;20086;-65
2023/04/12 10:20:25;;;;;;;3.92;0.90;;;;;;;12.35;60.49;99690.19;5073711;28;20048;-65
2023/04/12 10:22:58;;;;;;;6.55;1.65;;;;;;;12.60;60.69;99677.91;5067799;28;20053;-65
2023/04/12 10:25:29;;;;;;;7.00;1.48;;;;;;;12.76;58.56;99677.97;5072477;28;20063;-65
2023/04/12 10:28:12;;;;;;;5.03;1.60;;;;;;;12.71;57.29;99684.53;5066222;28;20056;-64
2023/04/12 10:30:39;;;;;;;8.00;1.88;;;;;;;12.75;58.59;99688.22;5070339;28;20388;-64
2023/04/12 10:33:15;;;;;;;10.40;2.13;;;;;;;12.44;58.95;99690.88;5059009;28;20606;-63
2023/04/12 10:36:02;;;;;;;5.63;1.58;;;;;;;12.15;61.52;99685.66;5069371;28;20052;-63
2023/04/12 10:38:44;;;;;;;6.85;1.90;;;;;;;12.15;60.44;99699.47;5063644;28;20052;-64
2023/04/12 10:41:19;;;;;;;7.80;1.48;;;;;;;11.98;59.81;99686.72;5073474;28;20064;-63
2023/04/12 10:43:47;;;;;;;11.40;2.58;;;;;;;12.21;60.85;99696.13;5061125;28;20094;-66
2023/04/12 10:46:37;;;;;;;11.35;1.98;;;;;;;12.58;59.09;99693.22;5066713;28;20052;-66
2023/04/12 10:49:09;;;;;;;9.27;2.17;;;;;;;13.08;58.86;99687.94;5060931;28;20041;-66
2023/04/12 10:51:36;;;;;;;6.97;2.45;;;;;;;13.47;56.88;99685.03;5068073;28;20048;-65
2023/04/12 10:54:16;;;;;;;10.98;3.35;;;;;;;13.44;53.84;99680.19;5054590;28;20060;-64
2023/04/12 10:56:45;;;;;;;10.80;2.53;;;;;;;13.16;52.06;99686.97;5070890;28;20045;-65
2023/04/12 11:00:01;;;;;;;11.57;2.15;;;;;;;13.06;52.76;99696.59;5070043;28;20452;-65
2023/04/12 11:02:33;;;;;;;8.80;2.00;;;;;;;13.24;53.71;99697.88;5021182;28;20053;-65
2023/04/12 11:05:09;;;;;;;9.07;2.10;;;;;;;13.15;52.77;99690.88;5070045;28;20488;-66
2023/04/12 11:07:59;;;;;;;9.85;2.35;;;;;;;13.09;52.38;99697.84;5056166;28;20052;-67
2023/04/12 11:10:38;;;;;;;11.18;1.70;;;;;;;13.13;53.34;99691.25;5060354;28;20060;-66
2023/04/12 11:13:08;;;;;;;12.18;1.83;;;;;;;13.09;53.02;99697.84;5068717;28;20060;-67
2023/04/12 11:15:37;;;;;;;7.32;1.80;;;;;;;12.77;52.04;99687.84;5071103;28;20053;-66
2023/04/12 11:18:11;;;;;;;8.68;1.92;;;;;;;12.81;53.51;99694.28;5062285;28;20053;-66
2023/04/12 11:20:41;;;;;;;7.50;1.70;;;;;;;12.75;53.01;99699.25;5072663;28;20056;-65
2023/04/12 11:23:09;;;;;;;8.82;2.05;;;;;;;12.97;53.15;99695.13;5066868;28;20056;-66
2023/04/12 11:25:37;;;;;;;8.10;1.40;;;;;;;13.01;53.65;99696.81;5053379;28;20060;-66
2023/04/12 11:28:05;;;;;;;4.78;1.60;;;;;;;12.88;52.38;99687.00;5067760;28;20064;-65
2023/04/12 11:30:54;;;;;;;7.82;2.00;;;;;;;12.84;53.76;99697.16;5066027;28;20052;-66
2023/04/12 11:33:34;;;;;;;9.07;2.05;;;;;;;13.02;52.39;99692.91;5056850;28;21577;-66
2023/04/12 11:36:12;;;;;;;12.10;1.83;;;;;;;12.81;52.60;99681.28;5061797;28;20400;-65
2023/04/12 11:38:40;;;;;;;8.73;1.77;;;;;;;12.75;51.92;99685.44;5040474;28;20053;-65
2023/04/12 11:41:08;;;;;;;10.55;1.85;;;;;;;12.78;52.71;99678.41;5064194;28;20049;-65
2023/04/12 11:43:37;;;;;;;6.28;1.73;;;;;;;13.10;52.29;99677.31;5071928;28;20048;-64
2023/04/12 11:46:05;;;;;;;11.32;1.98;;;;;;;13.06;51.58;99677.25;5065461;28;20504;-67
2023/04/12 11:48:32;;;;;;;8.52;1.55;;;;;;;13.11;51.20;99665.13;5063457;28;20048;-65